createdAt,value
2018-04-19T00:01:24.433Z,7.17
2018-04-19T00:03:54.617Z,7.47
2018-04-19T00:06:26.278Z,7.33
2018-04-19T00:08:57.111Z,7.33
2018-04-19T00:11:27.181Z,7.03
2018-04-19T00:13:57.481Z,6.80
2018-04-19T00:16:28.189Z,7.80
2018-04-19T00:18:59.940Z,7.40
2018-04-19T00:21:35.682Z,7.23
2018-04-19T00:24:08.112Z,7.80
2018-04-19T00:26:38.518Z,7.57
2018-04-19T00:29:13.369Z,6.67
2018-04-19T00:31:50.799Z,6.93
2018-04-19T00:34:25.157Z,7.30
2018-04-19T00:36:55.108Z,7.87
2018-04-19T00:39:25.289Z,6.90
2018-04-19T00:41:57.528Z,7.27
2018-04-19T00:44:26.938Z,7.87
2018-04-19T00:46:56.257Z,7.90
2018-04-19T00:49:33.360Z,7.63
2018-04-19T00:52:08.640Z,7.60
2018-04-19T00:54:38.893Z,7.47
2018-04-19T00:57:10.270Z,7.50
2018-04-19T00:59:44.366Z,7.73
2018-04-19T01:02:14.756Z,7.70
2018-04-19T01:04:47.278Z,8.13
2018-04-19T01:07:17.837Z,7.67
2018-04-19T01:09:54.708Z,8.57
2018-04-19T01:12:25.303Z,8.13
2018-04-19T01:15:02.084Z,7.50
2018-04-19T01:17:38.697Z,7.20
2018-04-19T01:20:13.686Z,7.53
2018-04-19T01:23:03.311Z,7.87
2018-04-19T01:25:31.869Z,7.13
2018-04-19T01:28:03.155Z,7.20
2018-04-19T01:30:31.002Z,7.60
2018-04-19T01:32:58.795Z,7.83
2018-04-19T01:35:38.707Z,8.30
2018-04-19T01:38:07.113Z,7.80
2018-04-19T01:40:36.976Z,7.77
2018-04-19T01:43:04.691Z,8.13
2018-04-19T01:45:32.836Z,8.97
2018-04-19T01:48:00.908Z,7.70
2018-04-19T01:50:30.176Z,7.00
2018-04-19T01:53:20.269Z,7.73
2018-04-19T01:55:48.480Z,7.77
2018-04-19T01:58:17.191Z,6.83
2018-04-19T02:00:47.357Z,6.63
2018-04-19T02:03:22.336Z,7.20
2018-04-19T02:05:51.184Z,7.37
2018-04-19T02:08:20.421Z,6.87
2018-04-19T02:10:49.491Z,6.97
2018-04-19T02:13:17.115Z,7.13
2018-04-19T02:15:45.457Z,6.70
2018-04-19T02:18:13.296Z,6.50
2018-04-19T02:20:41.052Z,7.03
2018-04-19T02:23:09.146Z,7.10
2018-04-19T02:25:43.069Z,6.60
2018-04-19T02:28:17.133Z,6.67
2018-04-19T02:30:49.741Z,7.00
2018-04-19T02:33:17.518Z,6.53
2018-04-19T02:35:45.514Z,6.90
2018-04-19T02:38:14.320Z,6.93
2018-04-19T02:40:42.365Z,7.53
2018-04-19T02:43:10.215Z,9.33
2018-04-19T02:45:40.097Z,8.57
2018-04-19T02:48:07.658Z,8.57
2018-04-19T02:50:39.654Z,8.03
2018-04-19T02:53:35.926Z,8.20
2018-04-19T02:56:03.782Z,8.87
2018-04-19T02:58:31.341Z,7.97
2018-04-19T03:01:04.492Z,8.50
2018-04-19T03:03:39.936Z,8.17
2018-04-19T03:06:08.026Z,8.33
2018-04-19T03:08:35.590Z,7.97
2018-04-19T03:11:03.165Z,7.47
2018-04-19T03:13:32.995Z,8.97
2018-04-19T03:16:01.583Z,8.67
2018-04-19T03:18:30.221Z,8.47
2018-04-19T03:20:57.971Z,8.63
2018-04-19T03:23:29.777Z,9.03
2018-04-19T03:26:00.883Z,8.10
2018-04-19T03:28:29.183Z,8.63
2018-04-19T03:30:58.225Z,8.70
2018-04-19T03:33:25.792Z,8.57
2018-04-19T03:36:00.266Z,7.80
2018-04-19T03:38:29.638Z,8.50
2018-04-19T04:03:35.034Z,8.93
2018-04-19T04:06:10.100Z,10.20
2018-04-19T04:08:45.268Z,9.33
2018-04-19T04:11:13.070Z,8.93
2018-04-19T04:13:41.607Z,9.00
2018-04-19T04:16:10.862Z,9.33
2018-04-19T04:18:50.561Z,9.10
2018-04-19T04:21:19.428Z,9.20
2018-04-19T04:23:51.812Z,8.40
2018-04-19T04:26:21.073Z,9.00
2018-04-19T04:28:50.353Z,8.53
2018-04-19T04:31:19.390Z,8.80
2018-04-19T04:33:47.475Z,9.33
2018-04-19T04:36:20.021Z,8.67
2018-04-19T04:38:48.503Z,9.10
2018-04-19T04:41:17.384Z,9.40
2018-04-19T04:43:49.678Z,9.90
2018-04-19T04:46:17.275Z,9.37
2018-04-19T04:48:45.902Z,10.03
2018-04-19T04:51:14.033Z,9.03
2018-04-19T04:53:42.210Z,9.10
2018-04-19T04:56:10.671Z,9.10
2018-04-19T04:58:44.132Z,8.97
2018-04-19T05:01:14.955Z,8.90
2018-04-19T05:03:42.485Z,8.60
2018-04-19T05:06:10.075Z,9.17
2018-04-19T05:08:37.633Z,9.23
2018-04-19T05:11:06.315Z,8.67
2018-04-19T05:13:40.999Z,8.90
2018-04-19T05:16:08.545Z,8.33
2018-04-19T05:18:36.158Z,8.27
2018-04-19T05:21:05.336Z,7.73
2018-04-19T05:23:34.866Z,8.60
2018-04-19T05:26:03.080Z,8.00
2018-04-19T05:28:31.118Z,7.47
2018-04-19T05:31:00.514Z,7.83
2018-04-19T05:33:29.090Z,7.57
2018-04-19T05:35:56.925Z,8.10
2018-04-19T05:38:25.969Z,9.00
2018-04-19T05:40:54.436Z,8.33
2018-04-19T05:43:22.299Z,8.50
2018-04-19T05:45:54.057Z,7.90
2018-04-19T05:48:23.559Z,8.10
2018-04-19T05:50:51.646Z,8.53
2018-04-19T05:53:19.505Z,8.47
2018-04-19T05:56:09.585Z,8.00
2018-04-19T05:58:37.150Z,8.77
2018-04-19T06:01:10.967Z,8.93
2018-04-19T06:03:42.782Z,8.13
2018-04-19T06:06:10.922Z,8.33
2018-04-19T06:08:38.497Z,8.73
2018-04-19T06:11:11.329Z,8.80
2018-04-19T06:13:46.245Z,9.37
2018-04-19T06:16:14.964Z,9.43
2018-04-19T06:18:43.579Z,8.37
2018-04-19T06:21:11.147Z,9.00
2018-04-19T06:23:39.416Z,9.17
2018-04-19T06:26:15.054Z,9.40
2018-04-19T06:28:46.491Z,9.40
2018-04-19T06:31:14.050Z,10.23
2018-04-19T06:33:41.611Z,10.57
2018-04-19T06:36:11.481Z,10.20
2018-04-19T06:38:41.082Z,10.40
2018-04-19T06:41:36.138Z,12.07
2018-04-19T06:44:03.685Z,12.00
2018-04-19T06:46:35.928Z,11.57
2018-04-19T06:49:08.087Z,11.97
2018-04-19T06:51:39.432Z,12.33
2018-04-19T06:54:18.126Z,13.50
2018-04-19T06:56:46.577Z,13.57
2018-04-19T06:59:14.168Z,12.67
2018-04-19T07:01:42.095Z,14.23
2018-04-19T07:04:09.678Z,13.80
2018-04-19T07:06:37.874Z,14.20
2018-04-19T07:09:11.003Z,14.20
2018-04-19T07:11:40.005Z,13.23
2018-04-19T07:14:09.262Z,15.43
2018-04-19T07:16:42.728Z,15.93
2018-04-19T07:19:12.232Z,14.60
2018-04-19T07:21:43.111Z,14.87
2018-04-19T07:24:12.715Z,13.90
2018-04-19T07:26:42.110Z,15.07
2018-04-19T07:29:12.374Z,15.13
2018-04-19T07:31:41.343Z,13.43
2018-04-19T07:34:10.597Z,14.73
2018-04-19T07:36:41.393Z,14.00
2018-04-19T07:39:13.499Z,13.87
2018-04-19T07:41:42.417Z,12.83
2018-04-19T07:44:11.692Z,13.60
2018-04-19T07:46:40.610Z,12.35
2018-04-19T07:49:09.542Z,11.52
2018-04-19T07:51:43.155Z,11.52
2018-04-19T07:54:17.224Z,12.55
2018-04-19T07:56:47.186Z,12.60
2018-04-19T07:59:39.093Z,11.52
2018-04-19T08:02:08.872Z,11.25
2018-04-19T08:04:39.647Z,12.75
2018-04-19T08:07:08.696Z,11.05
2018-04-19T08:09:37.646Z,11.02
2018-04-19T08:12:07.033Z,12.45
2018-04-19T08:14:35.937Z,11.85
2018-04-19T08:17:05.881Z,11.32
2018-04-19T08:19:35.877Z,10.40
2018-04-19T08:22:06.627Z,8.35
2018-04-19T08:24:36.243Z,9.00
2018-04-19T08:27:06.320Z,9.05
2018-04-19T08:29:35.621Z,9.82
2018-04-19T08:32:04.914Z,9.75
2018-04-19T08:34:34.889Z,8.90
2018-04-19T08:37:04.677Z,9.18
2018-04-19T08:39:40.610Z,8.15
2018-04-19T08:42:12.495Z,9.05
2018-04-19T08:44:42.927Z,8.10
2018-04-19T08:47:11.839Z,9.23
2018-04-19T08:49:40.732Z,7.95
2018-04-19T08:52:09.650Z,8.50
2018-04-19T08:54:38.766Z,7.70
2018-04-19T08:57:11.064Z,6.80
2018-04-19T08:59:41.049Z,8.32
2018-04-19T09:02:10.550Z,7.90
2018-04-19T09:04:41.055Z,8.07
2018-04-19T09:07:10.370Z,7.85
2018-04-19T09:09:40.633Z,7.60
2018-04-19T09:12:09.804Z,7.70
2018-04-19T09:14:41.171Z,7.68
2018-04-19T09:17:12.607Z,9.43
2018-04-19T09:19:41.516Z,7.32
2018-04-19T09:22:12.905Z,7.60
2018-04-19T09:24:47.497Z,6.87
2018-04-19T09:27:16.428Z,8.50
2018-04-19T09:29:45.581Z,7.28
2018-04-19T09:32:15.086Z,7.07
2018-04-19T09:44:25.619Z,6.10
2018-04-19T09:46:54.512Z,5.47
2018-04-19T09:49:23.782Z,6.15
2018-04-19T09:51:52.984Z,5.75
2018-04-19T09:54:22.489Z,5.50
2018-04-19T09:56:56.091Z,6.20
2018-04-19T09:59:26.543Z,5.47
2018-04-19T10:02:03.234Z,5.28
2018-04-19T10:04:34.071Z,5.03
2018-04-19T10:07:02.980Z,4.80
2018-04-19T10:09:32.404Z,5.37
2018-04-19T10:12:01.336Z,5.12
2018-04-19T10:14:49.340Z,4.80
2018-04-19T10:17:20.454Z,5.32
2018-04-19T10:19:50.531Z,5.65
2018-04-19T10:22:19.491Z,5.35
2018-04-19T10:24:49.113Z,5.03
2018-04-19T10:27:18.019Z,4.80
2018-04-19T10:29:57.387Z,4.93
2018-04-19T10:32:28.155Z,4.87
2018-04-19T10:35:03.341Z,4.75
2018-04-19T10:37:33.690Z,5.07
2018-04-19T10:40:04.377Z,4.45
2018-04-19T10:42:33.553Z,5.22
2018-04-19T10:45:29.331Z,4.57
2018-04-19T10:48:00.540Z,3.72
2018-04-19T10:50:32.838Z,4.47
2018-04-19T10:53:02.118Z,4.12
2018-04-19T10:55:31.543Z,4.30
2018-04-19T10:58:03.652Z,4.00
2018-04-19T11:00:33.296Z,3.70
2018-04-19T11:03:03.998Z,4.10
2018-04-19T11:05:37.419Z,3.95
2018-04-19T11:08:06.294Z,4.07
2018-04-19T11:10:35.216Z,4.35
2018-04-19T11:13:04.386Z,3.92
2018-04-19T11:15:34.489Z,3.70
2018-04-19T11:18:05.484Z,3.67
2018-04-19T11:20:35.276Z,3.20
2018-04-19T11:23:04.179Z,3.90
2018-04-19T11:25:33.065Z,3.30
2018-04-19T11:28:02.798Z,3.80
2018-04-19T11:30:40.126Z,4.40
2018-04-19T11:33:09.481Z,3.80
2018-04-19T11:35:39.280Z,3.65
2018-04-19T11:38:08.296Z,3.80
2018-04-19T11:40:37.566Z,3.90
2018-04-19T11:43:10.108Z,3.55
2018-04-19T11:45:42.894Z,3.50
2018-04-19T11:48:12.348Z,3.33
2018-04-19T11:50:41.263Z,3.50
2018-04-19T11:53:10.169Z,2.90
2018-04-19T11:55:37.728Z,2.90
2018-04-19T11:58:06.349Z,2.70
2018-04-19T12:00:33.887Z,3.05
2018-04-19T12:03:01.434Z,2.90
2018-04-19T12:05:29.902Z,3.15
2018-04-19T12:07:58.251Z,3.08
2018-04-19T12:10:25.843Z,3.12
2018-04-19T12:12:55.032Z,2.78
2018-04-19T12:15:24.516Z,2.62
2018-04-19T12:17:52.075Z,2.50
2018-04-19T12:20:20.414Z,3.17
2018-04-19T12:22:48.151Z,3.30
2018-04-19T12:25:17.780Z,2.97
2018-04-19T12:27:45.348Z,2.75
2018-04-19T12:30:12.894Z,2.85
2018-04-19T12:32:40.468Z,2.92
2018-04-19T12:35:09.303Z,3.10
2018-04-19T12:37:37.419Z,2.78
2018-04-19T12:40:04.964Z,3.08
2018-04-19T12:42:33.067Z,3.00
2018-04-19T12:45:03.728Z,2.87
2018-04-19T12:47:31.308Z,2.75
2018-04-19T12:50:00.360Z,3.05
2018-04-19T12:52:28.124Z,3.50
2018-04-19T12:54:55.663Z,3.03
2018-04-19T12:57:25.848Z,3.50
2018-04-19T12:59:53.579Z,3.40
2018-04-19T13:06:07.020Z,3.30
2018-04-19T13:08:34.568Z,3.35
2018-04-19T13:11:03.908Z,3.40
2018-04-19T13:13:38.262Z,3.53
2018-04-19T13:16:09.298Z,3.42
2018-04-19T13:18:37.531Z,3.67
2018-04-19T13:21:06.027Z,3.22
2018-04-19T13:23:33.559Z,3.53
2018-04-19T13:26:04.098Z,3.30
2018-04-19T13:28:31.652Z,3.40
2018-04-19T13:30:59.201Z,3.47
2018-04-19T13:33:26.812Z,3.65
2018-04-19T13:35:56.401Z,3.40
2018-04-19T13:38:25.204Z,3.42
2018-04-19T13:40:53.009Z,3.28
2018-04-19T13:43:21.393Z,3.67
2018-04-19T13:45:49.416Z,3.50
2018-04-19T13:48:17.884Z,4.07
2018-04-19T13:50:45.584Z,3.60
2018-04-19T13:53:14.424Z,3.00
2018-04-19T13:55:44.993Z,3.35
2018-04-19T13:58:16.169Z,3.15
2018-04-19T14:00:44.051Z,3.10
2018-04-19T14:03:12.729Z,3.12
2018-04-19T14:05:41.673Z,3.08
2018-04-19T14:08:10.828Z,3.30
2018-04-19T14:10:42.981Z,3.28
2018-04-19T14:13:11.183Z,3.00
2018-04-19T14:15:39.454Z,3.30
2018-04-19T14:18:07.848Z,3.10
2018-04-19T14:20:39.023Z,3.17
2018-04-19T14:23:07.100Z,3.10
2018-04-19T14:25:34.864Z,2.97
2018-04-19T14:28:03.615Z,3.08
2018-04-19T14:30:31.410Z,3.40
2018-04-19T14:32:59.247Z,2.83
2018-04-19T14:35:26.808Z,3.45
2018-04-19T14:37:56.355Z,3.05
2018-04-19T14:40:24.594Z,3.33
2018-04-19T14:42:52.918Z,3.30
2018-04-19T14:45:24.742Z,3.40
2018-04-19T14:47:56.031Z,3.00
2018-04-19T14:53:47.522Z,2.95
2018-04-19T14:56:15.087Z,2.90
2018-04-19T14:58:44.924Z,3.10
2018-04-19T15:01:13.772Z,3.22
2018-04-19T15:03:43.452Z,2.97
2018-04-19T15:06:11.794Z,3.10
2018-04-19T15:08:44.284Z,3.17
2018-04-19T15:11:19.000Z,2.95
2018-04-19T15:13:49.173Z,3.30
2018-04-19T15:16:17.003Z,3.37
2018-04-19T15:19:06.089Z,3.30
2018-04-19T15:21:35.646Z,3.10
2018-04-19T15:24:04.975Z,3.60
2018-04-19T15:26:37.849Z,3.25
2018-04-19T15:29:10.627Z,2.90
2018-04-19T15:31:43.223Z,3.08
2018-04-19T15:34:15.068Z,3.55
2018-04-19T15:36:43.635Z,3.22
2018-04-19T15:39:12.511Z,3.65
2018-04-19T15:41:40.868Z,3.70
2018-04-19T15:44:09.462Z,3.70
2018-04-19T15:46:39.135Z,3.40
2018-04-19T15:49:06.805Z,3.50
2018-04-19T15:51:35.442Z,3.12
2018-04-19T15:54:04.787Z,3.28
2018-04-19T15:56:39.053Z,3.50
2018-04-19T15:59:11.466Z,3.40
2018-04-19T16:01:40.556Z,3.67
2018-04-19T16:04:38.973Z,3.60
2018-04-19T16:07:06.880Z,3.83
2018-04-19T16:09:35.027Z,3.50
2018-04-19T16:12:02.632Z,3.20
2018-04-19T16:14:30.908Z,4.18
2018-04-19T16:16:58.758Z,3.40
2018-04-19T16:19:34.769Z,3.40
2018-04-19T16:22:02.752Z,3.60
2018-04-19T16:24:30.759Z,3.75
2018-04-19T16:26:58.344Z,3.45
2018-04-19T16:29:27.075Z,3.85
2018-04-19T16:31:59.904Z,3.53
2018-04-19T16:34:46.222Z,3.67
2018-04-19T16:37:16.859Z,3.67
2018-04-19T16:39:51.220Z,3.30
2018-04-19T16:42:18.797Z,3.87
2018-04-19T16:44:47.187Z,3.33
2018-04-19T16:47:14.868Z,3.60
2018-04-19T16:49:44.903Z,3.53
2018-04-19T16:52:12.490Z,3.55
2018-04-19T16:54:40.809Z,3.83
2018-04-19T16:57:08.378Z,3.72
2018-04-19T16:59:43.907Z,3.60
2018-04-19T17:02:18.592Z,3.80
2018-04-19T17:07:30.740Z,3.12
2018-04-19T17:09:58.643Z,3.40
2018-04-19T17:12:29.150Z,3.62
2018-04-19T17:14:57.382Z,3.80
2018-04-19T17:17:26.213Z,4.25
2018-04-19T17:20:01.527Z,4.45
2018-04-19T17:22:32.813Z,4.10
2018-04-19T17:25:00.650Z,4.35
2018-04-19T17:27:30.084Z,4.07
2018-04-19T17:29:58.897Z,4.47
2018-04-19T17:32:28.625Z,4.40
2018-04-19T17:34:57.176Z,4.62
2018-04-19T17:37:27.565Z,4.45
2018-04-19T17:39:57.199Z,4.53
2018-04-19T17:42:24.822Z,4.43
2018-04-19T17:44:53.744Z,4.03
2018-04-19T17:47:21.302Z,4.00
2018-04-19T17:49:49.363Z,3.40
2018-04-19T17:52:18.091Z,3.40
2018-04-19T17:54:46.984Z,3.58
2018-04-19T17:57:14.571Z,3.60
2018-04-19T17:59:42.680Z,3.28
2018-04-19T18:02:10.450Z,3.62
2018-04-19T18:04:40.962Z,3.25
2018-04-19T18:07:16.760Z,3.75
2018-04-19T18:09:46.999Z,3.85
2018-04-19T18:12:17.964Z,3.50
2018-04-19T18:14:45.546Z,3.20
2018-04-19T18:17:14.360Z,3.10
2018-04-19T18:19:49.925Z,3.60
2018-04-19T18:22:19.105Z,3.60
2018-04-19T18:24:46.718Z,3.50
2018-04-19T18:27:15.665Z,3.58
2018-04-19T18:29:45.689Z,3.50
2018-04-19T18:32:21.437Z,3.87
2018-04-19T18:34:49.134Z,3.42
2018-04-19T18:37:22.034Z,3.97
2018-04-19T18:39:49.604Z,3.90
2018-04-19T18:42:19.563Z,3.80
2018-04-19T18:44:53.288Z,3.97
2018-04-19T18:47:21.611Z,4.37
2018-04-19T18:49:49.212Z,4.22
2018-04-19T18:52:17.808Z,3.95
2018-04-19T18:54:47.347Z,3.85
2018-04-19T18:57:15.578Z,4.10
2018-04-19T18:59:43.765Z,4.05
2018-04-19T19:02:12.087Z,4.15
2018-04-19T19:04:46.737Z,3.87
2018-04-19T19:07:36.794Z,4.10
2018-04-19T19:10:04.925Z,4.03
2018-04-19T19:12:34.979Z,4.05
2018-04-19T19:15:06.705Z,3.83
2018-04-19T19:17:46.803Z,3.87
2018-04-19T19:20:15.635Z,4.30
2018-04-19T19:22:43.464Z,4.55
2018-04-19T19:25:11.018Z,4.50
2018-04-19T19:27:44.103Z,4.87
2018-04-19T19:30:11.710Z,4.57
2018-04-19T19:32:40.432Z,5.55
2018-04-19T19:35:08.829Z,4.95
2018-04-19T19:37:36.918Z,4.30
2018-04-19T19:40:04.530Z,4.28
2018-04-19T19:42:32.381Z,4.70
2018-04-19T19:44:59.997Z,5.97
2018-04-19T19:47:27.554Z,5.70
2018-04-19T19:50:02.820Z,5.82
2018-04-19T19:52:37.505Z,4.78
2018-04-19T19:55:29.382Z,4.93
2018-04-19T19:57:57.099Z,4.72
2018-04-19T20:00:24.663Z,5.15
2018-04-19T20:02:56.692Z,5.20
2018-04-19T20:05:29.908Z,5.23
2018-04-19T20:07:58.033Z,5.30
2018-04-19T20:10:26.325Z,6.10
2018-04-19T20:12:54.043Z,5.83
2018-04-19T20:15:21.634Z,5.30
2018-04-19T20:17:58.241Z,5.90
2018-04-19T20:20:33.192Z,5.60
2018-04-19T20:23:04.673Z,5.33
2018-04-19T20:25:54.091Z,5.93
2018-04-19T20:28:23.166Z,6.13
2018-04-19T20:30:51.208Z,6.37
2018-04-19T20:33:26.068Z,6.60
2018-04-19T20:35:56.493Z,6.40
2018-04-19T20:38:24.049Z,6.37
2018-04-19T20:41:12.852Z,6.57
2018-04-19T20:43:43.755Z,6.07
2018-04-19T20:46:14.209Z,5.60
2018-04-19T20:48:42.621Z,5.93
2018-04-19T20:51:10.580Z,5.97
2018-04-19T20:53:39.383Z,5.67
2018-04-19T20:56:09.947Z,6.50
2018-04-19T20:58:42.285Z,6.10
2018-04-19T21:01:15.270Z,6.27
2018-04-19T21:03:44.584Z,6.37
2018-04-19T21:06:12.348Z,6.07
2018-04-19T21:08:40.490Z,6.30
2018-04-19T21:11:09.371Z,6.13
2018-04-19T21:13:43.954Z,6.13
2018-04-19T21:16:11.752Z,6.47
2018-04-19T21:18:39.435Z,6.07
2018-04-19T21:21:07.043Z,5.93
2018-04-19T21:23:34.623Z,6.00
2018-04-19T21:26:03.691Z,6.17
2018-04-19T21:28:33.861Z,5.90
2018-04-19T21:31:04.325Z,5.90
2018-04-19T21:33:36.958Z,5.83
2018-04-19T21:36:05.583Z,5.90
2018-04-19T21:38:33.535Z,5.70
2018-04-19T21:41:02.671Z,6.20
2018-04-19T21:43:35.672Z,5.80
2018-04-19T21:46:09.378Z,6.20
2018-04-19T21:48:42.024Z,6.03
2018-04-19T21:51:18.063Z,6.30
2018-04-19T21:53:48.014Z,5.80
2018-04-19T21:56:16.424Z,5.73
2018-04-19T21:58:45.020Z,5.57
2018-04-19T22:01:12.763Z,5.60
2018-04-19T22:03:43.714Z,5.93
2018-04-19T22:06:16.117Z,5.97
2018-04-19T22:08:51.574Z,6.20
2018-04-19T22:11:25.590Z,6.13
2018-04-19T22:14:00.540Z,5.87
2018-04-19T22:16:34.619Z,5.97
2018-04-19T22:19:10.632Z,6.60
2018-04-19T22:21:43.656Z,6.70
2018-04-19T22:24:19.829Z,6.40
2018-04-19T22:27:08.655Z,6.30
2018-04-19T22:29:41.805Z,6.57
2018-04-19T22:32:09.612Z,6.63
2018-04-19T22:34:40.611Z,6.50
2018-04-19T22:37:08.498Z,6.67
2018-04-19T22:39:36.559Z,6.93
2018-04-19T22:42:04.162Z,7.27
2018-04-19T22:44:34.956Z,6.60
2018-04-19T22:47:03.615Z,6.97
2018-04-19T22:49:38.231Z,6.47
2018-04-19T22:52:06.598Z,6.70
2018-04-19T22:54:35.631Z,6.63
2018-04-19T22:57:20.490Z,7.20
2018-04-19T22:59:48.258Z,7.00
2018-04-19T23:02:16.316Z,7.57
2018-04-19T23:04:46.060Z,7.20
2018-04-19T23:07:16.275Z,6.83
2018-04-19T23:09:44.300Z,7.93
2018-04-19T23:12:13.154Z,7.57
2018-04-19T23:14:41.481Z,7.70
2018-04-19T23:17:09.072Z,7.20
2018-04-19T23:19:43.271Z,7.37
2018-04-19T23:22:12.924Z,7.30
2018-04-19T23:24:41.631Z,8.07
2018-04-19T23:27:09.717Z,7.60
2018-04-19T23:29:37.308Z,7.90
2018-04-19T23:32:08.821Z,8.27
2018-04-19T23:34:40.127Z,7.60
2018-04-19T23:37:07.696Z,7.77
2018-04-19T23:39:37.573Z,7.70
2018-04-19T23:42:05.951Z,7.87
2018-04-19T23:44:33.903Z,8.23
2018-04-19T23:47:06.764Z,8.00
2018-04-19T23:49:41.343Z,7.93
2018-04-19T23:52:11.734Z,7.67
2018-04-19T23:54:40.041Z,7.83
2018-04-19T23:57:12.732Z,8.37
2018-04-19T23:59:41.685Z,8.67
